createdAt,value
2018-05-13T00:03:15.698Z,10.02
2018-05-13T00:07:49.665Z,7.68
2018-05-13T00:12:22.873Z,6.05
2018-05-13T00:16:56.063Z,5.95
2018-05-13T00:21:30.027Z,6.75
2018-05-13T00:26:03.266Z,6.20
2018-05-13T00:30:36.451Z,7.90
2018-05-13T00:35:09.659Z,7.32
2018-05-13T00:39:42.856Z,8.07
2018-05-13T00:44:16.058Z,7.12
2018-05-13T00:48:49.223Z,8.02
2018-05-13T00:53:23.169Z,7.35
2018-05-13T00:57:56.663Z,7.82
2018-05-13T01:02:30.600Z,8.60
2018-05-13T01:07:03.787Z,7.70
2018-05-13T01:11:37.757Z,7.68
2018-05-13T01:16:10.922Z,7.45
2018-05-13T01:20:44.874Z,7.05
2018-05-13T01:25:18.071Z,7.20
2018-05-13T01:29:51.266Z,7.00
2018-05-13T01:34:24.457Z,6.28
2018-05-13T01:38:58.383Z,6.80
2018-05-13T01:43:32.346Z,9.63
2018-05-13T01:48:05.538Z,8.07
2018-05-13T01:52:38.730Z,6.82
2018-05-13T01:57:11.926Z,10.43
2018-05-13T02:01:45.902Z,9.27
2018-05-13T02:06:19.069Z,11.40
2018-05-13T02:10:52.630Z,8.60
2018-05-13T02:15:25.824Z,7.72
2018-05-13T02:19:59.068Z,8.73
2018-05-13T02:24:32.281Z,9.20
2018-05-13T02:29:06.234Z,9.70
2018-05-13T02:33:39.462Z,9.70
2018-05-13T02:38:12.698Z,8.65
2018-05-13T02:42:45.891Z,8.75
2018-05-13T02:47:19.079Z,8.80
2018-05-13T02:51:52.567Z,8.95
2018-05-13T02:56:25.772Z,9.05
2018-05-13T03:00:58.982Z,9.73
2018-05-13T03:05:32.155Z,10.52
2018-05-13T03:10:05.375Z,13.10
2018-05-13T03:14:39.307Z,15.80
2018-05-13T03:19:13.262Z,12.13
2018-05-13T03:23:46.465Z,12.32
2018-05-13T03:28:19.646Z,11.10
2018-05-13T03:32:52.845Z,12.18
2018-05-13T03:37:27.060Z,11.18
2018-05-13T03:42:00.503Z,11.20
2018-05-13T03:46:33.699Z,11.48
2018-05-13T03:51:07.659Z,12.02
2018-05-13T03:55:40.851Z,13.25
2018-05-13T04:00:14.066Z,13.15
2018-05-13T04:04:47.232Z,12.80
2018-05-13T04:09:33.127Z,11.38
2018-05-13T04:14:18.050Z,12.20
2018-05-13T04:18:52.211Z,11.50
2018-05-13T04:23:25.397Z,12.52
2018-05-13T04:27:58.594Z,12.13
2018-05-13T04:32:31.795Z,11.60
2018-05-13T04:37:04.995Z,12.25
2018-05-13T04:41:38.190Z,12.10
2018-05-13T04:46:12.150Z,12.57
2018-05-13T04:50:45.368Z,12.37
2018-05-13T04:55:18.667Z,13.02
2018-05-13T04:59:51.857Z,13.95
2018-05-13T05:04:25.052Z,12.90
2018-05-13T05:08:58.306Z,13.77
2018-05-13T05:13:31.491Z,14.40
2018-05-13T05:18:04.666Z,12.35
2018-05-13T05:22:38.640Z,12.70
2018-05-13T05:27:11.833Z,11.63
2018-05-13T05:31:45.028Z,11.05
2018-05-13T05:36:18.242Z,10.50
2018-05-13T05:40:51.415Z,10.27
2018-05-13T05:45:25.377Z,10.50
2018-05-13T05:49:58.583Z,10.93
2018-05-13T05:54:31.807Z,10.00
2018-05-13T05:59:04.977Z,10.17
2018-05-13T06:03:38.170Z,8.70
2018-05-13T06:08:11.359Z,8.43
2018-05-13T06:12:45.318Z,7.03
2018-05-13T06:17:18.507Z,8.50
2018-05-13T06:21:51.666Z,6.63
2018-05-13T06:26:24.852Z,6.67
2018-05-13T06:30:58.042Z,6.53
2018-05-13T06:35:31.209Z,5.10
2018-05-13T06:40:04.399Z,5.70
2018-05-13T06:44:37.590Z,4.60
2018-05-13T06:49:10.790Z,4.47
2018-05-13T06:53:43.946Z,5.07
2018-05-13T06:58:17.898Z,4.70
2018-05-13T07:02:51.174Z,3.73
2018-05-13T07:07:24.327Z,4.60
2018-05-13T07:11:57.517Z,4.00
2018-05-13T07:16:30.739Z,4.60
2018-05-13T07:21:03.935Z,4.53
2018-05-13T07:25:37.135Z,4.95
2018-05-13T07:30:10.301Z,5.45
2018-05-13T07:34:43.549Z,5.12
2018-05-13T07:39:16.714Z,5.72
2018-05-13T07:43:49.954Z,7.12
2018-05-13T07:48:23.142Z,5.97
2018-05-13T07:52:57.105Z,7.40
2018-05-13T07:57:30.293Z,8.25
2018-05-13T08:02:03.488Z,9.23
2018-05-13T08:06:36.700Z,9.25
2018-05-13T08:11:09.891Z,8.93
2018-05-13T08:15:43.867Z,8.90
2018-05-13T08:20:17.083Z,8.35
2018-05-13T08:24:50.252Z,9.32
2018-05-13T08:29:23.450Z,8.45
2018-05-13T08:33:56.650Z,8.05
2018-05-13T08:38:30.598Z,8.57
2018-05-13T08:43:03.771Z,7.37
2018-05-13T08:47:37.722Z,6.65
2018-05-13T08:52:10.932Z,8.13
2018-05-13T08:56:44.098Z,8.82
2018-05-13T09:01:18.143Z,9.23
2018-05-13T09:05:52.123Z,9.57
2018-05-13T09:10:25.313Z,11.10
2018-05-13T09:14:58.546Z,10.38
2018-05-13T09:19:31.757Z,12.18
2018-05-13T09:24:04.954Z,9.73
2018-05-13T09:28:38.150Z,8.18
2018-05-13T09:33:11.351Z,7.40
2018-05-13T09:37:44.560Z,7.50
2018-05-13T09:42:17.800Z,6.95
2018-05-13T09:46:50.987Z,7.70
2018-05-13T09:51:24.217Z,7.00
2018-05-13T09:55:58.185Z,6.07
2018-05-13T10:00:31.391Z,5.28
2018-05-13T10:05:04.594Z,5.70
2018-05-13T10:09:37.953Z,5.53
2018-05-13T10:14:11.115Z,7.05
2018-05-13T10:18:44.297Z,6.10
2018-05-13T10:23:17.494Z,5.80
2018-05-13T10:27:51.577Z,5.80
2018-05-13T10:32:24.767Z,6.57
2018-05-13T10:36:57.962Z,7.43
2018-05-13T10:41:31.132Z,7.47
2018-05-13T10:46:05.120Z,8.05
2018-05-13T10:50:38.292Z,7.90
2018-05-13T10:55:11.513Z,12.00
2018-05-13T10:59:44.682Z,8.90
2018-05-13T11:04:18.663Z,11.63
2018-05-13T11:08:51.864Z,11.12
2018-05-13T11:13:25.078Z,10.95
2018-05-13T11:17:58.277Z,11.35
2018-05-13T11:22:31.454Z,10.98
2018-05-13T11:27:04.672Z,26.73
2018-05-13T11:31:38.595Z,11.63
2018-05-13T11:36:11.804Z,10.68
2018-05-13T11:40:45.024Z,10.95
2018-05-13T11:45:18.226Z,11.63
2018-05-13T11:49:51.427Z,13.23
2018-05-13T11:54:24.604Z,12.68
2018-05-13T11:58:57.802Z,12.00
2018-05-13T12:03:31.788Z,13.45
2018-05-13T12:08:04.981Z,14.18
2018-05-13T12:12:38.241Z,13.43
2018-05-13T12:17:12.906Z,13.07
2018-05-13T12:21:46.074Z,13.23
2018-05-13T12:26:19.281Z,14.95
2018-05-13T12:30:52.474Z,16.27
2018-05-13T12:35:25.671Z,15.80
2018-05-13T12:39:58.886Z,15.98
2018-05-13T12:44:33.568Z,15.68
2018-05-13T12:49:06.767Z,14.75
2018-05-13T12:53:40.763Z,13.55
2018-05-13T12:58:13.972Z,14.63
2018-05-13T13:02:47.930Z,12.45
2018-05-13T13:07:21.147Z,12.90
2018-05-13T13:11:54.440Z,10.70
2018-05-13T13:16:27.672Z,11.30
2018-05-13T13:21:00.877Z,11.32
2018-05-13T13:25:34.051Z,9.65
2018-05-13T13:30:08.010Z,9.73
2018-05-13T13:34:41.202Z,9.68
2018-05-13T13:39:14.411Z,10.57
2018-05-13T13:43:47.654Z,9.68
2018-05-13T13:48:20.826Z,9.20
2018-05-13T13:52:54.104Z,9.27
2018-05-13T13:57:28.063Z,9.05
2018-05-13T14:02:01.257Z,9.57
2018-05-13T14:06:34.468Z,10.27
2018-05-13T14:11:07.751Z,10.40
2018-05-13T14:15:41.852Z,9.48
2018-05-13T14:20:15.126Z,9.20
2018-05-13T14:24:49.096Z,9.07
2018-05-13T14:29:22.263Z,9.10
2018-05-13T14:33:55.446Z,8.45
2018-05-13T14:38:28.673Z,8.32
2018-05-13T14:43:01.860Z,7.68
2018-05-13T14:47:35.054Z,8.20
2018-05-13T14:52:08.268Z,7.82
2018-05-13T14:56:41.460Z,8.30
2018-05-13T15:01:15.447Z,7.40
2018-05-13T15:05:48.689Z,6.87
2018-05-13T15:10:22.744Z,5.68
2018-05-13T15:14:56.150Z,5.78
2018-05-13T15:19:29.342Z,6.22
2018-05-13T15:24:03.306Z,5.20
2018-05-13T15:28:36.466Z,6.35
2018-05-13T15:33:10.419Z,5.78
2018-05-13T15:37:44.049Z,6.32
2018-05-13T15:42:17.282Z,7.32
2018-05-13T15:46:50.474Z,6.93
2018-05-13T15:51:23.666Z,8.00
2018-05-13T15:55:56.859Z,8.82
2018-05-13T16:00:30.090Z,9.20
2018-05-13T16:05:03.283Z,10.82
2018-05-13T16:09:36.494Z,11.00
2018-05-13T16:14:10.566Z,11.38
2018-05-13T16:18:44.721Z,14.48
2018-05-13T16:23:17.902Z,14.38
2018-05-13T16:27:51.079Z,14.30
2018-05-13T16:32:24.275Z,14.15
2018-05-13T16:36:57.479Z,16.55
2018-05-13T16:41:30.676Z,15.60
2018-05-13T16:46:03.876Z,16.48
2018-05-13T16:50:37.361Z,18.50
2018-05-13T16:55:11.339Z,18.73
2018-05-13T16:59:44.549Z,17.33
2018-05-13T17:04:17.756Z,18.62
2018-05-13T17:08:50.974Z,21.02
2018-05-13T17:13:24.181Z,20.77
2018-05-13T17:17:57.386Z,20.08
2018-05-13T17:22:30.600Z,19.85
2018-05-13T17:27:03.851Z,21.27
2018-05-13T17:31:37.249Z,21.70
2018-05-13T17:36:11.292Z,20.67
2018-05-13T17:40:44.467Z,21.62
2018-05-13T17:45:18.300Z,22.33
2018-05-13T17:49:52.552Z,21.10
2018-05-13T17:54:25.857Z,20.98
2018-05-13T17:58:59.452Z,21.33
2018-05-13T18:03:32.779Z,22.35
2018-05-13T18:08:05.954Z,23.62
2018-05-13T18:12:39.150Z,23.15
2018-05-13T18:17:13.909Z,24.02
2018-05-13T18:21:47.899Z,23.90
2018-05-13T18:26:21.141Z,24.52
2018-05-13T18:30:55.399Z,22.87
2018-05-13T18:35:28.597Z,23.60
2018-05-13T18:40:02.604Z,24.25
2018-05-13T18:44:35.886Z,27.05
2018-05-13T18:49:09.272Z,25.60
2018-05-13T18:53:42.540Z,24.98
2018-05-13T18:58:15.800Z,25.52
2018-05-13T19:02:49.160Z,24.63
2018-05-13T19:07:23.130Z,25.05
2018-05-13T19:11:56.339Z,25.10
2018-05-13T19:16:29.550Z,24.90
2018-05-13T19:21:02.775Z,24.15
2018-05-13T19:25:35.945Z,24.67
2018-05-13T19:30:09.143Z,23.33
2018-05-13T19:34:42.362Z,24.35
2018-05-13T19:39:15.554Z,23.95
2018-05-13T19:43:48.907Z,22.62
2018-05-13T19:48:22.283Z,22.52
2018-05-13T19:52:55.490Z,22.60
2018-05-13T19:57:29.035Z,22.10
2018-05-13T20:02:02.299Z,25.50
2018-05-13T20:06:35.527Z,25.27
2018-05-13T20:11:08.991Z,24.67
2018-05-13T20:15:42.976Z,23.65
2018-05-13T20:20:16.315Z,25.20
2018-05-13T20:24:49.515Z,24.42
2018-05-13T20:29:24.246Z,22.13
2018-05-13T20:33:57.466Z,23.58
2018-05-13T20:38:32.339Z,22.92
2018-05-13T20:43:05.570Z,23.33
2018-05-13T20:47:38.852Z,22.42
2018-05-13T20:52:12.067Z,24.98
2018-05-13T20:56:46.823Z,33.67
2018-05-13T21:01:20.035Z,26.33
2018-05-13T21:05:53.334Z,24.17
2018-05-13T21:10:27.603Z,23.40
2018-05-13T21:15:00.826Z,22.90
2018-05-13T21:19:34.029Z,23.05
2018-05-13T21:24:07.232Z,23.60
2018-05-13T21:28:40.450Z,23.30
2018-05-13T21:33:14.497Z,23.45
2018-05-13T21:37:48.523Z,23.85
2018-05-13T21:42:22.506Z,24.83
2018-05-13T21:46:55.691Z,24.45
2018-05-13T21:51:28.898Z,24.77
2018-05-13T21:56:02.128Z,25.65
2018-05-13T22:00:35.324Z,24.48
2018-05-13T22:05:08.602Z,24.05
2018-05-13T22:09:41.861Z,21.65
2018-05-13T22:14:15.034Z,22.02
2018-05-13T22:18:48.239Z,21.05
2018-05-13T22:23:22.191Z,21.35
2018-05-13T22:27:55.394Z,18.87
2018-05-13T22:32:28.582Z,20.23
2018-05-13T22:37:01.818Z,19.83
2018-05-13T22:41:35.037Z,22.30
2018-05-13T22:46:08.274Z,21.70
2018-05-13T22:50:41.483Z,20.37
2018-05-13T22:55:15.443Z,22.13
2018-05-13T22:59:48.644Z,25.15
2018-05-13T23:04:21.838Z,26.42
2018-05-13T23:08:55.038Z,40.78
2018-05-13T23:13:28.251Z,27.77
2018-05-13T23:18:01.454Z,30.48
2018-05-13T23:22:35.453Z,36.15
2018-05-13T23:27:09.420Z,35.10
2018-05-13T23:31:42.610Z,33.10
2018-05-13T23:36:15.814Z,30.30
2018-05-13T23:40:49.028Z,31.30
2018-05-13T23:45:22.302Z,30.67
2018-05-13T23:49:56.518Z,29.20
2018-05-13T23:54:29.696Z,24.95
2018-05-13T23:59:02.887Z,23.83
